sensor_id;sensor_type;location;lat;lon;timestamp;P1;durP1;ratioP1;P2;durP2;ratioP2
5539;SDS011;2792;52.452;9.752;2023-08-07T00:00:57;9.07;;;5.90;;
5539;SDS011;2792;52.452;9.752;2023-08-07T00:03:23;6.80;;;5.83;;
5539;SDS011;2792;52.452;9.752;2023-08-07T00:05:50;6.27;;;5.63;;
5539;SDS011;2792;52.452;9.752;2023-08-07T00:08:17;10.27;;;5.80;;
5539;SDS011;2792;52.452;9.752;2023-08-07T00:10:44;9.80;;;5.90;;
5539;SDS011;2792;52.452;9.752;2023-08-07T00:13:12;12.50;;;6.90;;
5539;SDS011;2792;52.452;9.752;2023-08-07T00:15:38;10.37;;;6.67;;
5539;SDS011;2792;52.452;9.752;2023-08-07T00:18:05;12.70;;;7.20;;
5539;SDS011;2792;52.452;9.752;2023-08-07T00:20:31;13.13;;;6.93;;
5539;SDS011;2792;52.452;9.752;2023-08-07T00:22:58;12.30;;;7.13;;
5539;SDS011;2792;52.452;9.752;2023-08-07T00:25:24;12.50;;;6.90;;
5539;SDS011;2792;52.452;9.752;2023-08-07T00:27:51;13.67;;;7.70;;
5539;SDS011;2792;52.452;9.752;2023-08-07T00:30:19;11.23;;;7.90;;
5539;SDS011;2792;52.452;9.752;2023-08-07T00:32:45;12.27;;;7.30;;
5539;SDS011;2792;52.452;9.752;2023-08-07T00:35:12;10.60;;;8.10;;
5539;SDS011;2792;52.452;9.752;2023-08-07T00:37:38;12.60;;;7.27;;
5539;SDS011;2792;52.452;9.752;2023-08-07T00:40:05;11.10;;;8.33;;
5539;SDS011;2792;52.452;9.752;2023-08-07T00:42:32;9.23;;;8.03;;
5539;SDS011;2792;52.452;9.752;2023-08-07T00:44:59;13.27;;;8.67;;
5539;SDS011;2792;52.452;9.752;2023-08-07T00:47:27;12.87;;;9.63;;
5539;SDS011;2792;52.452;9.752;2023-08-07T00:49:54;13.00;;;9.27;;
5539;SDS011;2792;52.452;9.752;2023-08-07T00:52:22;19.70;;;10.27;;
5539;SDS011;2792;52.452;9.752;2023-08-07T00:54:48;14.20;;;9.90;;
5539;SDS011;2792;52.452;9.752;2023-08-07T00:57:15;16.13;;;9.10;;
5539;SDS011;2792;52.452;9.752;2023-08-07T00:59:41;13.37;;;8.00;;
5539;SDS011;2792;52.452;9.752;2023-08-07T01:02:09;13.33;;;9.10;;
5539;SDS011;2792;52.452;9.752;2023-08-07T01:04:37;15.03;;;8.90;;
5539;SDS011;2792;52.452;9.752;2023-08-07T01:07:04;14.00;;;10.03;;
5539;SDS011;2792;52.452;9.752;2023-08-07T01:09:31;14.90;;;11.00;;
5539;SDS011;2792;52.452;9.752;2023-08-07T01:12:00;18.73;;;10.90;;
5539;SDS011;2792;52.452;9.752;2023-08-07T01:14:37;18.93;;;12.10;;
5539;SDS011;2792;52.452;9.752;2023-08-07T01:17:06;16.67;;;12.40;;
5539;SDS011;2792;52.452;9.752;2023-08-07T01:19:34;13.20;;;10.87;;
5539;SDS011;2792;52.452;9.752;2023-08-07T01:22:06;20.17;;;11.80;;
5539;SDS011;2792;52.452;9.752;2023-08-07T01:24:33;15.03;;;11.20;;
5539;SDS011;2792;52.452;9.752;2023-08-07T01:27:01;16.90;;;12.70;;
5539;SDS011;2792;52.452;9.752;2023-08-07T01:29:33;15.57;;;11.40;;
5539;SDS011;2792;52.452;9.752;2023-08-07T01:32:05;25.07;;;13.17;;
5539;SDS011;2792;52.452;9.752;2023-08-07T01:34:34;18.37;;;12.23;;
5539;SDS011;2792;52.452;9.752;2023-08-07T01:37:01;20.40;;;12.30;;
5539;SDS011;2792;52.452;9.752;2023-08-07T01:39:30;20.33;;;12.80;;
5539;SDS011;2792;52.452;9.752;2023-08-07T01:41:57;18.63;;;13.17;;
5539;SDS011;2792;52.452;9.752;2023-08-07T01:44:25;17.60;;;12.70;;
5539;SDS011;2792;52.452;9.752;2023-08-07T01:46:52;19.03;;;12.87;;
5539;SDS011;2792;52.452;9.752;2023-08-07T01:49:18;20.87;;;13.23;;
5539;SDS011;2792;52.452;9.752;2023-08-07T01:51:45;21.00;;;13.40;;
5539;SDS011;2792;52.452;9.752;2023-08-07T01:54:11;21.73;;;14.57;;
5539;SDS011;2792;52.452;9.752;2023-08-07T01:56:39;19.33;;;13.50;;
5539;SDS011;2792;52.452;9.752;2023-08-07T01:59:05;21.87;;;14.03;;
5539;SDS011;2792;52.452;9.752;2023-08-07T02:01:32;24.90;;;13.90;;
5539;SDS011;2792;52.452;9.752;2023-08-07T02:03:58;22.27;;;12.93;;
5539;SDS011;2792;52.452;9.752;2023-08-07T02:06:25;21.60;;;13.70;;
5539;SDS011;2792;52.452;9.752;2023-08-07T02:08:52;18.63;;;13.13;;
5539;SDS011;2792;52.452;9.752;2023-08-07T02:11:19;18.10;;;12.53;;
5539;SDS011;2792;52.452;9.752;2023-08-07T02:13:47;16.33;;;12.00;;
5539;SDS011;2792;52.452;9.752;2023-08-07T02:16:13;18.60;;;12.20;;
5539;SDS011;2792;52.452;9.752;2023-08-07T02:18:40;16.03;;;11.90;;
5539;SDS011;2792;52.452;9.752;2023-08-07T02:21:07;16.80;;;12.47;;
5539;SDS011;2792;52.452;9.752;2023-08-07T02:23:33;17.30;;;11.40;;
5539;SDS011;2792;52.452;9.752;2023-08-07T02:26:00;17.13;;;11.50;;
5539;SDS011;2792;52.452;9.752;2023-08-07T02:28:26;15.80;;;11.17;;
5539;SDS011;2792;52.452;9.752;2023-08-07T02:30:54;17.77;;;12.20;;
5539;SDS011;2792;52.452;9.752;2023-08-07T02:33:20;17.67;;;10.40;;
5539;SDS011;2792;52.452;9.752;2023-08-07T02:35:47;17.63;;;11.60;;
5539;SDS011;2792;52.452;9.752;2023-08-07T02:38:15;18.53;;;11.53;;
5539;SDS011;2792;52.452;9.752;2023-08-07T02:40:41;16.80;;;11.90;;
5539;SDS011;2792;52.452;9.752;2023-08-07T02:43:08;16.00;;;10.93;;
5539;SDS011;2792;52.452;9.752;2023-08-07T02:45:34;16.77;;;10.17;;
5539;SDS011;2792;52.452;9.752;2023-08-07T02:48:02;14.77;;;11.30;;
5539;SDS011;2792;52.452;9.752;2023-08-07T02:50:29;15.13;;;10.23;;
5539;SDS011;2792;52.452;9.752;2023-08-07T02:52:57;14.10;;;10.50;;
5539;SDS011;2792;52.452;9.752;2023-08-07T02:55:24;17.40;;;10.43;;
5539;SDS011;2792;52.452;9.752;2023-08-07T02:57:50;17.03;;;9.23;;
5539;SDS011;2792;52.452;9.752;2023-08-07T03:00:17;14.30;;;9.70;;
5539;SDS011;2792;52.452;9.752;2023-08-07T03:02:43;17.90;;;8.73;;
5539;SDS011;2792;52.452;9.752;2023-08-07T03:05:11;12.33;;;8.20;;
5539;SDS011;2792;52.452;9.752;2023-08-07T03:07:38;13.30;;;8.60;;
5539;SDS011;2792;52.452;9.752;2023-08-07T03:10:05;13.50;;;9.03;;
5539;SDS011;2792;52.452;9.752;2023-08-07T03:12:32;14.77;;;10.50;;
5539;SDS011;2792;52.452;9.752;2023-08-07T03:14:59;16.80;;;9.33;;
5539;SDS011;2792;52.452;9.752;2023-08-07T03:17:25;17.10;;;10.00;;
5539;SDS011;2792;52.452;9.752;2023-08-07T03:19:52;14.10;;;9.67;;
5539;SDS011;2792;52.452;9.752;2023-08-07T03:22:20;12.93;;;9.63;;
5539;SDS011;2792;52.452;9.752;2023-08-07T03:24:46;17.20;;;10.80;;
5539;SDS011;2792;52.452;9.752;2023-08-07T03:27:13;19.50;;;11.37;;
5539;SDS011;2792;52.452;9.752;2023-08-07T03:29:40;16.40;;;11.13;;
5539;SDS011;2792;52.452;9.752;2023-08-07T03:32:06;17.20;;;10.77;;
5539;SDS011;2792;52.452;9.752;2023-08-07T03:34:34;15.00;;;9.30;;
5539;SDS011;2792;52.452;9.752;2023-08-07T03:37:00;17.90;;;9.20;;
5539;SDS011;2792;52.452;9.752;2023-08-07T03:39:28;15.73;;;10.73;;
5539;SDS011;2792;52.452;9.752;2023-08-07T03:41:55;14.33;;;9.90;;
5539;SDS011;2792;52.452;9.752;2023-08-07T03:44:21;16.03;;;9.93;;
5539;SDS011;2792;52.452;9.752;2023-08-07T03:46:48;16.60;;;9.43;;
5539;SDS011;2792;52.452;9.752;2023-08-07T03:49:16;12.37;;;9.43;;
5539;SDS011;2792;52.452;9.752;2023-08-07T03:51:42;12.83;;;8.50;;
5539;SDS011;2792;52.452;9.752;2023-08-07T03:54:09;15.20;;;9.70;;
5539;SDS011;2792;52.452;9.752;2023-08-07T03:56:36;16.13;;;9.27;;
5539;SDS011;2792;52.452;9.752;2023-08-07T03:59:03;16.20;;;9.60;;
5539;SDS011;2792;52.452;9.752;2023-08-07T04:01:29;11.87;;;8.97;;
5539;SDS011;2792;52.452;9.752;2023-08-07T04:03:56;19.13;;;9.20;;
5539;SDS011;2792;52.452;9.752;2023-08-07T04:06:22;17.33;;;9.93;;
5539;SDS011;2792;52.452;9.752;2023-08-07T04:08:49;16.97;;;10.03;;
5539;SDS011;2792;52.452;9.752;2023-08-07T04:11:15;13.40;;;9.70;;
5539;SDS011;2792;52.452;9.752;2023-08-07T04:13:43;15.43;;;9.27;;
5539;SDS011;2792;52.452;9.752;2023-08-07T04:16:10;13.40;;;9.60;;
5539;SDS011;2792;52.452;9.752;2023-08-07T04:18:36;13.80;;;8.40;;
5539;SDS011;2792;52.452;9.752;2023-08-07T04:21:03;14.33;;;9.70;;
5539;SDS011;2792;52.452;9.752;2023-08-07T04:23:29;14.87;;;9.20;;
5539;SDS011;2792;52.452;9.752;2023-08-07T04:25:56;13.37;;;9.23;;
5539;SDS011;2792;52.452;9.752;2023-08-07T04:28:23;11.07;;;9.10;;
5539;SDS011;2792;52.452;9.752;2023-08-07T04:30:51;12.53;;;8.40;;
5539;SDS011;2792;52.452;9.752;2023-08-07T04:33:18;10.63;;;8.87;;
5539;SDS011;2792;52.452;9.752;2023-08-07T04:35:45;10.53;;;8.20;;
5539;SDS011;2792;52.452;9.752;2023-08-07T04:38:12;11.53;;;8.97;;
5539;SDS011;2792;52.452;9.752;2023-08-07T04:40:43;10.67;;;8.23;;
5539;SDS011;2792;52.452;9.752;2023-08-07T04:43:10;13.53;;;9.13;;
5539;SDS011;2792;52.452;9.752;2023-08-07T04:45:36;9.90;;;7.57;;
5539;SDS011;2792;52.452;9.752;2023-08-07T04:48:05;8.97;;;7.67;;
5539;SDS011;2792;52.452;9.752;2023-08-07T04:50:31;10.83;;;8.27;;
5539;SDS011;2792;52.452;9.752;2023-08-07T04:52:58;13.03;;;8.37;;
5539;SDS011;2792;52.452;9.752;2023-08-07T04:55:24;10.70;;;7.83;;
5539;SDS011;2792;52.452;9.752;2023-08-07T04:57:51;10.10;;;8.63;;
5539;SDS011;2792;52.452;9.752;2023-08-07T05:00:19;14.27;;;8.20;;
5539;SDS011;2792;52.452;9.752;2023-08-07T05:02:46;14.50;;;7.43;;
5539;SDS011;2792;52.452;9.752;2023-08-07T05:05:15;13.40;;;7.23;;
5539;SDS011;2792;52.452;9.752;2023-08-07T05:07:42;8.30;;;6.63;;
5539;SDS011;2792;52.452;9.752;2023-08-07T05:10:09;13.13;;;7.33;;
5539;SDS011;2792;52.452;9.752;2023-08-07T05:12:35;8.23;;;6.60;;
5539;SDS011;2792;52.452;9.752;2023-08-07T05:15:02;8.90;;;6.30;;
5539;SDS011;2792;52.452;9.752;2023-08-07T05:17:29;6.67;;;5.97;;
5539;SDS011;2792;52.452;9.752;2023-08-07T05:19:55;10.00;;;6.20;;
5539;SDS011;2792;52.452;9.752;2023-08-07T05:22:23;8.50;;;5.73;;
5539;SDS011;2792;52.452;9.752;2023-08-07T05:24:50;9.73;;;5.53;;
5539;SDS011;2792;52.452;9.752;2023-08-07T05:27:16;9.20;;;5.60;;
5539;SDS011;2792;52.452;9.752;2023-08-07T05:29:43;9.03;;;6.10;;
5539;SDS011;2792;52.452;9.752;2023-08-07T05:32:10;7.00;;;5.00;;
5539;SDS011;2792;52.452;9.752;2023-08-07T05:34:36;7.83;;;5.33;;
5539;SDS011;2792;52.452;9.752;2023-08-07T05:37:03;10.07;;;6.40;;
5539;SDS011;2792;52.452;9.752;2023-08-07T05:39:32;6.60;;;5.27;;
5539;SDS011;2792;52.452;9.752;2023-08-07T05:41:58;9.10;;;5.47;;
5539;SDS011;2792;52.452;9.752;2023-08-07T05:44:25;5.97;;;4.60;;
5539;SDS011;2792;52.452;9.752;2023-08-07T05:46:51;7.87;;;5.70;;
5539;SDS011;2792;52.452;9.752;2023-08-07T05:49:18;22.20;;;4.97;;
5539;SDS011;2792;52.452;9.752;2023-08-07T05:51:45;7.47;;;4.90;;
5539;SDS011;2792;52.452;9.752;2023-08-07T05:54:11;8.23;;;4.70;;
5539;SDS011;2792;52.452;9.752;2023-08-07T05:56:40;8.10;;;5.03;;
5539;SDS011;2792;52.452;9.752;2023-08-07T05:59:07;6.80;;;4.40;;
5539;SDS011;2792;52.452;9.752;2023-08-07T06:01:33;6.77;;;4.33;;
5539;SDS011;2792;52.452;9.752;2023-08-07T06:04:02;10.40;;;4.90;;
5539;SDS011;2792;52.452;9.752;2023-08-07T06:06:29;8.73;;;4.40;;
5539;SDS011;2792;52.452;9.752;2023-08-07T06:08:59;5.83;;;4.73;;
5539;SDS011;2792;52.452;9.752;2023-08-07T06:11:26;7.27;;;4.60;;
5539;SDS011;2792;52.452;9.752;2023-08-07T06:13:54;6.97;;;4.83;;
5539;SDS011;2792;52.452;9.752;2023-08-07T06:16:20;8.00;;;4.97;;
5539;SDS011;2792;52.452;9.752;2023-08-07T06:18:46;8.77;;;5.10;;
5539;SDS011;2792;52.452;9.752;2023-08-07T06:21:13;8.43;;;4.40;;
5539;SDS011;2792;52.452;9.752;2023-08-07T06:23:39;4.97;;;4.47;;
5539;SDS011;2792;52.452;9.752;2023-08-07T06:26:06;6.63;;;4.50;;
5539;SDS011;2792;52.452;9.752;2023-08-07T06:28:33;5.23;;;4.27;;
5539;SDS011;2792;52.452;9.752;2023-08-07T06:31:02;10.23;;;4.40;;
5539;SDS011;2792;52.452;9.752;2023-08-07T06:33:30;5.07;;;4.37;;
5539;SDS011;2792;52.452;9.752;2023-08-07T06:35:58;6.77;;;4.00;;
5539;SDS011;2792;52.452;9.752;2023-08-07T06:38:24;7.07;;;4.03;;
5539;SDS011;2792;52.452;9.752;2023-08-07T06:40:51;6.10;;;3.63;;
5539;SDS011;2792;52.452;9.752;2023-08-07T06:43:17;5.57;;;3.87;;
5539;SDS011;2792;52.452;9.752;2023-08-07T06:45:46;3.67;;;3.37;;
5539;SDS011;2792;52.452;9.752;2023-08-07T06:48:14;6.90;;;3.40;;
5539;SDS011;2792;52.452;9.752;2023-08-07T06:50:40;3.10;;;2.90;;
5539;SDS011;2792;52.452;9.752;2023-08-07T06:53:07;5.37;;;3.23;;
5539;SDS011;2792;52.452;9.752;2023-08-07T06:55:33;5.30;;;3.47;;
5539;SDS011;2792;52.452;9.752;2023-08-07T06:58:00;7.07;;;2.90;;
5539;SDS011;2792;52.452;9.752;2023-08-07T07:00:26;3.70;;;3.40;;
5539;SDS011;2792;52.452;9.752;2023-08-07T07:02:53;4.00;;;3.10;;
5539;SDS011;2792;52.452;9.752;2023-08-07T07:05:21;3.80;;;2.70;;
5539;SDS011;2792;52.452;9.752;2023-08-07T07:07:47;4.80;;;3.10;;
5539;SDS011;2792;52.452;9.752;2023-08-07T07:10:14;5.13;;;3.60;;
5539;SDS011;2792;52.452;9.752;2023-08-07T07:12:41;4.80;;;3.40;;
5539;SDS011;2792;52.452;9.752;2023-08-07T07:15:07;4.10;;;3.07;;
5539;SDS011;2792;52.452;9.752;2023-08-07T07:17:34;8.07;;;3.87;;
5539;SDS011;2792;52.452;9.752;2023-08-07T07:20:04;5.50;;;3.03;;
5539;SDS011;2792;52.452;9.752;2023-08-07T07:22:35;6.23;;;3.53;;
5539;SDS011;2792;52.452;9.752;2023-08-07T07:25:02;3.20;;;2.90;;
5539;SDS011;2792;52.452;9.752;2023-08-07T07:27:28;3.53;;;3.13;;
5539;SDS011;2792;52.452;9.752;2023-08-07T07:29:55;5.20;;;3.17;;
5539;SDS011;2792;52.452;9.752;2023-08-07T07:32:21;5.60;;;3.10;;
5539;SDS011;2792;52.452;9.752;2023-08-07T07:34:48;3.67;;;3.20;;
5539;SDS011;2792;52.452;9.752;2023-08-07T07:37:15;4.77;;;3.30;;
5539;SDS011;2792;52.452;9.752;2023-08-07T07:39:43;9.37;;;2.77;;
5539;SDS011;2792;52.452;9.752;2023-08-07T07:42:10;5.20;;;2.70;;
5539;SDS011;2792;52.452;9.752;2023-08-07T07:44:36;4.20;;;2.60;;
5539;SDS011;2792;52.452;9.752;2023-08-07T07:47:05;3.60;;;2.77;;
5539;SDS011;2792;52.452;9.752;2023-08-07T07:49:32;3.10;;;2.33;;
5539;SDS011;2792;52.452;9.752;2023-08-07T07:51:59;4.30;;;2.70;;
5539;SDS011;2792;52.452;9.752;2023-08-07T07:54:25;3.40;;;2.40;;
5539;SDS011;2792;52.452;9.752;2023-08-07T07:56:55;3.33;;;2.43;;
5539;SDS011;2792;52.452;9.752;2023-08-07T07:59:21;4.43;;;2.30;;
5539;SDS011;2792;52.452;9.752;2023-08-07T08:01:48;3.73;;;2.50;;
5539;SDS011;2792;52.452;9.752;2023-08-07T08:04:16;3.17;;;2.87;;
5539;SDS011;2792;52.452;9.752;2023-08-07T08:06:42;3.20;;;2.20;;
5539;SDS011;2792;52.452;9.752;2023-08-07T08:09:09;4.33;;;2.60;;
5539;SDS011;2792;52.452;9.752;2023-08-07T08:11:36;6.33;;;2.43;;
5539;SDS011;2792;52.452;9.752;2023-08-07T08:14:04;3.30;;;2.17;;
5539;SDS011;2792;52.452;9.752;2023-08-07T08:16:30;5.67;;;2.40;;
5539;SDS011;2792;52.452;9.752;2023-08-07T08:18:57;2.40;;;2.10;;
5539;SDS011;2792;52.452;9.752;2023-08-07T08:21:23;4.30;;;2.10;;
5539;SDS011;2792;52.452;9.752;2023-08-07T08:23:50;5.37;;;1.80;;
5539;SDS011;2792;52.452;9.752;2023-08-07T08:26:16;2.40;;;1.67;;
5539;SDS011;2792;52.452;9.752;2023-08-07T08:28:43;5.37;;;1.83;;
5539;SDS011;2792;52.452;9.752;2023-08-07T08:31:11;4.00;;;2.23;;
5539;SDS011;2792;52.452;9.752;2023-08-07T08:33:37;2.37;;;2.17;;
5539;SDS011;2792;52.452;9.752;2023-08-07T08:36:05;8.27;;;2.57;;
5539;SDS011;2792;52.452;9.752;2023-08-07T08:38:31;3.80;;;2.20;;
5539;SDS011;2792;52.452;9.752;2023-08-07T08:40:59;6.13;;;2.10;;
5539;SDS011;2792;52.452;9.752;2023-08-07T08:43:28;8.23;;;2.90;;
5539;SDS011;2792;52.452;9.752;2023-08-07T08:45:56;5.40;;;2.50;;
5539;SDS011;2792;52.452;9.752;2023-08-07T08:48:24;2.67;;;1.83;;
5539;SDS011;2792;52.452;9.752;2023-08-07T08:50:51;6.73;;;2.40;;
5539;SDS011;2792;52.452;9.752;2023-08-07T08:53:18;6.00;;;2.70;;
5539;SDS011;2792;52.452;9.752;2023-08-07T08:55:47;2.47;;;2.10;;
5539;SDS011;2792;52.452;9.752;2023-08-07T08:58:14;8.70;;;2.73;;
5539;SDS011;2792;52.452;9.752;2023-08-07T09:00:41;5.40;;;2.40;;
5539;SDS011;2792;52.452;9.752;2023-08-07T09:03:08;6.40;;;2.63;;
5539;SDS011;2792;52.452;9.752;2023-08-07T09:05:36;9.00;;;2.77;;
5539;SDS011;2792;52.452;9.752;2023-08-07T09:08:03;6.23;;;2.43;;
5539;SDS011;2792;52.452;9.752;2023-08-07T09:10:30;6.00;;;2.57;;
5539;SDS011;2792;52.452;9.752;2023-08-07T09:13:00;7.87;;;3.20;;
5539;SDS011;2792;52.452;9.752;2023-08-07T09:15:28;4.90;;;3.00;;
5539;SDS011;2792;52.452;9.752;2023-08-07T09:17:56;11.17;;;2.90;;
5539;SDS011;2792;52.452;9.752;2023-08-07T09:20:23;4.07;;;2.23;;
5539;SDS011;2792;52.452;9.752;2023-08-07T09:22:51;4.87;;;2.20;;
5539;SDS011;2792;52.452;9.752;2023-08-07T09:25:26;6.00;;;2.23;;
5539;SDS011;2792;52.452;9.752;2023-08-07T09:27:53;3.53;;;2.40;;
5539;SDS011;2792;52.452;9.752;2023-08-07T09:30:20;4.63;;;2.17;;
5539;SDS011;2792;52.452;9.752;2023-08-07T09:32:47;3.00;;;2.03;;
5539;SDS011;2792;52.452;9.752;2023-08-07T09:35:14;5.57;;;2.37;;
5539;SDS011;2792;52.452;9.752;2023-08-07T09:37:42;3.77;;;2.00;;
5539;SDS011;2792;52.452;9.752;2023-08-07T09:40:10;3.60;;;2.50;;
5539;SDS011;2792;52.452;9.752;2023-08-07T09:42:40;5.20;;;2.20;;
5539;SDS011;2792;52.452;9.752;2023-08-07T09:45:18;5.00;;;1.93;;
5539;SDS011;2792;52.452;9.752;2023-08-07T09:47:46;7.20;;;2.50;;
5539;SDS011;2792;52.452;9.752;2023-08-07T09:50:15;6.00;;;2.20;;
5539;SDS011;2792;52.452;9.752;2023-08-07T09:52:44;8.50;;;1.97;;
5539;SDS011;2792;52.452;9.752;2023-08-07T09:55:13;6.17;;;2.40;;
5539;SDS011;2792;52.452;9.752;2023-08-07T09:57:41;3.97;;;1.93;;
5539;SDS011;2792;52.452;9.752;2023-08-07T10:00:08;9.07;;;2.20;;
5539;SDS011;2792;52.452;9.752;2023-08-07T10:02:37;10.30;;;2.83;;
5539;SDS011;2792;52.452;9.752;2023-08-07T10:05:03;8.13;;;3.20;;
5539;SDS011;2792;52.452;9.752;2023-08-07T10:07:31;6.50;;;1.90;;
5539;SDS011;2792;52.452;9.752;2023-08-07T10:09:58;6.50;;;2.83;;
5539;SDS011;2792;52.452;9.752;2023-08-07T10:12:26;5.43;;;2.80;;
5539;SDS011;2792;52.452;9.752;2023-08-07T10:14:53;5.00;;;2.40;;
5539;SDS011;2792;52.452;9.752;2023-08-07T10:17:20;7.40;;;1.93;;
5539;SDS011;2792;52.452;9.752;2023-08-07T10:19:47;4.70;;;2.13;;
5539;SDS011;2792;52.452;9.752;2023-08-07T10:22:14;3.70;;;2.10;;
5539;SDS011;2792;52.452;9.752;2023-08-07T10:24:42;3.40;;;2.00;;
5539;SDS011;2792;52.452;9.752;2023-08-07T10:27:09;6.30;;;2.23;;
5539;SDS011;2792;52.452;9.752;2023-08-07T10:29:37;4.10;;;2.00;;
5539;SDS011;2792;52.452;9.752;2023-08-07T10:32:04;3.80;;;1.97;;
5539;SDS011;2792;52.452;9.752;2023-08-07T10:34:33;5.27;;;1.90;;
5539;SDS011;2792;52.452;9.752;2023-08-07T10:36:59;8.43;;;2.43;;
5539;SDS011;2792;52.452;9.752;2023-08-07T10:39:26;3.67;;;2.23;;
5539;SDS011;2792;52.452;9.752;2023-08-07T10:41:53;5.67;;;1.93;;
5539;SDS011;2792;52.452;9.752;2023-08-07T10:44:20;6.20;;;2.00;;
5539;SDS011;2792;52.452;9.752;2023-08-07T10:46:50;2.50;;;1.33;;
5539;SDS011;2792;52.452;9.752;2023-08-07T10:49:29;3.63;;;1.80;;
5539;SDS011;2792;52.452;9.752;2023-08-07T10:51:56;3.30;;;1.93;;
5539;SDS011;2792;52.452;9.752;2023-08-07T10:54:23;5.60;;;2.30;;
5539;SDS011;2792;52.452;9.752;2023-08-07T10:56:52;4.50;;;1.77;;
5539;SDS011;2792;52.452;9.752;2023-08-07T10:59:19;7.37;;;2.17;;
5539;SDS011;2792;52.452;9.752;2023-08-07T11:01:50;4.00;;;2.40;;
5539;SDS011;2792;52.452;9.752;2023-08-07T11:04:17;6.53;;;2.30;;
5539;SDS011;2792;52.452;9.752;2023-08-07T11:06:46;5.20;;;2.00;;
5539;SDS011;2792;52.452;9.752;2023-08-07T11:09:13;7.73;;;2.23;;
5539;SDS011;2792;52.452;9.752;2023-08-07T11:11:42;8.00;;;2.00;;
5539;SDS011;2792;52.452;9.752;2023-08-07T11:14:11;6.93;;;2.03;;
5539;SDS011;2792;52.452;9.752;2023-08-07T11:16:38;3.20;;;1.87;;
5539;SDS011;2792;52.452;9.752;2023-08-07T11:19:06;6.60;;;2.30;;
5539;SDS011;2792;52.452;9.752;2023-08-07T11:21:33;3.43;;;1.50;;
5539;SDS011;2792;52.452;9.752;2023-08-07T11:24:00;4.03;;;1.97;;
5539;SDS011;2792;52.452;9.752;2023-08-07T11:26:26;6.53;;;2.10;;
5539;SDS011;2792;52.452;9.752;2023-08-07T11:28:54;5.00;;;1.60;;
5539;SDS011;2792;52.452;9.752;2023-08-07T11:31:20;4.37;;;1.63;;
5539;SDS011;2792;52.452;9.752;2023-08-07T11:33:50;3.93;;;1.83;;
5539;SDS011;2792;52.452;9.752;2023-08-07T11:36:18;7.00;;;1.70;;
5539;SDS011;2792;52.452;9.752;2023-08-07T11:38:44;4.67;;;1.90;;
5539;SDS011;2792;52.452;9.752;2023-08-07T11:41:15;3.37;;;1.57;;
5539;SDS011;2792;52.452;9.752;2023-08-07T11:43:43;9.13;;;1.50;;
5539;SDS011;2792;52.452;9.752;2023-08-07T11:46:11;2.20;;;1.60;;
5539;SDS011;2792;52.452;9.752;2023-08-07T11:48:39;5.77;;;1.63;;
5539;SDS011;2792;52.452;9.752;2023-08-07T11:51:06;2.67;;;1.40;;
5539;SDS011;2792;52.452;9.752;2023-08-07T11:53:35;2.30;;;1.17;;
5539;SDS011;2792;52.452;9.752;2023-08-07T11:56:03;5.87;;;1.70;;
5539;SDS011;2792;52.452;9.752;2023-08-07T11:58:33;4.13;;;1.67;;
5539;SDS011;2792;52.452;9.752;2023-08-07T12:01:03;2.60;;;1.40;;
5539;SDS011;2792;52.452;9.752;2023-08-07T12:03:31;4.33;;;1.60;;
5539;SDS011;2792;52.452;9.752;2023-08-07T12:06:01;7.37;;;2.20;;
5539;SDS011;2792;52.452;9.752;2023-08-07T12:08:30;6.57;;;2.10;;
5539;SDS011;2792;52.452;9.752;2023-08-07T12:11:00;6.07;;;1.80;;
5539;SDS011;2792;52.452;9.752;2023-08-07T12:13:27;7.20;;;1.80;;
5539;SDS011;2792;52.452;9.752;2023-08-07T12:15:55;5.30;;;1.60;;
5539;SDS011;2792;52.452;9.752;2023-08-07T12:18:22;3.03;;;1.40;;
5539;SDS011;2792;52.452;9.752;2023-08-07T12:20:49;6.07;;;1.63;;
5539;SDS011;2792;52.452;9.752;2023-08-07T12:23:17;7.03;;;1.50;;
5539;SDS011;2792;52.452;9.752;2023-08-07T12:25:47;6.80;;;1.70;;
5539;SDS011;2792;52.452;9.752;2023-08-07T12:28:15;7.73;;;1.60;;
5539;SDS011;2792;52.452;9.752;2023-08-07T12:30:42;2.53;;;1.70;;
5539;SDS011;2792;52.452;9.752;2023-08-07T12:33:10;1.77;;;1.37;;
5539;SDS011;2792;52.452;9.752;2023-08-07T12:35:37;7.87;;;2.00;;
5539;SDS011;2792;52.452;9.752;2023-08-07T12:38:03;3.10;;;1.50;;
5539;SDS011;2792;52.452;9.752;2023-08-07T12:40:30;5.53;;;1.73;;
5539;SDS011;2792;52.452;9.752;2023-08-07T12:42:57;9.90;;;2.97;;
5539;SDS011;2792;52.452;9.752;2023-08-07T12:45:26;6.60;;;1.87;;
5539;SDS011;2792;52.452;9.752;2023-08-07T12:47:52;6.20;;;1.83;;
5539;SDS011;2792;52.452;9.752;2023-08-07T12:50:19;6.77;;;1.80;;
5539;SDS011;2792;52.452;9.752;2023-08-07T12:52:45;8.47;;;2.53;;
5539;SDS011;2792;52.452;9.752;2023-08-07T12:55:12;4.60;;;1.93;;
5539;SDS011;2792;52.452;9.752;2023-08-07T12:57:39;3.87;;;1.90;;
5539;SDS011;2792;52.452;9.752;2023-08-07T13:00:07;11.97;;;2.50;;
5539;SDS011;2792;52.452;9.752;2023-08-07T13:02:39;7.03;;;2.13;;
5539;SDS011;2792;52.452;9.752;2023-08-07T13:05:06;3.83;;;1.77;;
5539;SDS011;2792;52.452;9.752;2023-08-07T13:07:33;7.50;;;2.40;;
5539;SDS011;2792;52.452;9.752;2023-08-07T13:10:00;6.63;;;2.10;;
5539;SDS011;2792;52.452;9.752;2023-08-07T13:12:26;9.50;;;2.30;;
5539;SDS011;2792;52.452;9.752;2023-08-07T13:14:53;6.70;;;2.07;;
5539;SDS011;2792;52.452;9.752;2023-08-07T13:17:19;8.77;;;2.20;;
5539;SDS011;2792;52.452;9.752;2023-08-07T13:19:47;9.07;;;2.47;;
5539;SDS011;2792;52.452;9.752;2023-08-07T13:22:14;7.80;;;2.60;;
5539;SDS011;2792;52.452;9.752;2023-08-07T13:24:40;4.90;;;2.57;;
5539;SDS011;2792;52.452;9.752;2023-08-07T13:27:08;7.97;;;2.97;;
5539;SDS011;2792;52.452;9.752;2023-08-07T13:29:34;4.80;;;2.17;;
5539;SDS011;2792;52.452;9.752;2023-08-07T13:32:01;3.63;;;2.07;;
5539;SDS011;2792;52.452;9.752;2023-08-07T13:34:29;5.43;;;1.90;;
5539;SDS011;2792;52.452;9.752;2023-08-07T13:36:57;7.30;;;2.57;;
5539;SDS011;2792;52.452;9.752;2023-08-07T13:39:25;11.20;;;3.17;;
5539;SDS011;2792;52.452;9.752;2023-08-07T13:41:53;9.00;;;2.20;;
5539;SDS011;2792;52.452;9.752;2023-08-07T13:44:19;5.23;;;2.30;;
5539;SDS011;2792;52.452;9.752;2023-08-07T13:46:47;3.13;;;2.10;;
5539;SDS011;2792;52.452;9.752;2023-08-07T13:49:14;5.43;;;2.33;;
5539;SDS011;2792;52.452;9.752;2023-08-07T13:51:40;4.90;;;2.27;;
5539;SDS011;2792;52.452;9.752;2023-08-07T13:54:08;6.80;;;2.70;;
5539;SDS011;2792;52.452;9.752;2023-08-07T13:56:35;6.40;;;2.10;;
5539;SDS011;2792;52.452;9.752;2023-08-07T13:59:01;9.70;;;2.93;;
5539;SDS011;2792;52.452;9.752;2023-08-07T14:01:28;6.33;;;2.30;;
5539;SDS011;2792;52.452;9.752;2023-08-07T14:03:54;10.00;;;2.33;;
5539;SDS011;2792;52.452;9.752;2023-08-07T14:06:21;4.30;;;1.77;;
5539;SDS011;2792;52.452;9.752;2023-08-07T14:08:47;5.33;;;2.53;;
5539;SDS011;2792;52.452;9.752;2023-08-07T14:11:15;7.60;;;2.47;;
5539;SDS011;2792;52.452;9.752;2023-08-07T14:13:42;8.40;;;1.90;;
5539;SDS011;2792;52.452;9.752;2023-08-07T14:16:09;8.13;;;2.27;;
5539;SDS011;2792;52.452;9.752;2023-08-07T14:18:35;4.93;;;2.10;;
5539;SDS011;2792;52.452;9.752;2023-08-07T14:21:02;8.87;;;2.40;;
5539;SDS011;2792;52.452;9.752;2023-08-07T14:23:28;5.87;;;2.63;;
5539;SDS011;2792;52.452;9.752;2023-08-07T14:25:55;4.63;;;2.30;;
5539;SDS011;2792;52.452;9.752;2023-08-07T14:28:23;3.60;;;1.70;;
5539;SDS011;2792;52.452;9.752;2023-08-07T14:30:50;7.13;;;2.43;;
5539;SDS011;2792;52.452;9.752;2023-08-07T14:33:17;6.77;;;2.10;;
5539;SDS011;2792;52.452;9.752;2023-08-07T14:35:43;7.70;;;2.10;;
5539;SDS011;2792;52.452;9.752;2023-08-07T14:38:10;2.57;;;1.60;;
5539;SDS011;2792;52.452;9.752;2023-08-07T14:40:37;5.67;;;2.30;;
5539;SDS011;2792;52.452;9.752;2023-08-07T14:43:06;6.73;;;2.60;;
5539;SDS011;2792;52.452;9.752;2023-08-07T14:45:34;6.73;;;2.03;;
5539;SDS011;2792;52.452;9.752;2023-08-07T14:48:00;8.37;;;2.50;;
5539;SDS011;2792;52.452;9.752;2023-08-07T14:50:27;4.10;;;2.03;;
5539;SDS011;2792;52.452;9.752;2023-08-07T14:52:53;11.53;;;2.50;;
5539;SDS011;2792;52.452;9.752;2023-08-07T14:55:20;5.40;;;2.07;;
5539;SDS011;2792;52.452;9.752;2023-08-07T14:57:46;2.80;;;1.67;;
5539;SDS011;2792;52.452;9.752;2023-08-07T15:00:13;4.40;;;1.60;;
5539;SDS011;2792;52.452;9.752;2023-08-07T15:02:43;3.70;;;2.17;;
5539;SDS011;2792;52.452;9.752;2023-08-07T15:05:09;5.10;;;2.10;;
5539;SDS011;2792;52.452;9.752;2023-08-07T15:07:36;3.93;;;1.77;;